Skip Navigation LinksHome page > Tools > METAR decoder Skip Navigation Links

METAR decoder

Settings

METAR

Chicago O'Hare Intl, Chicago

For information only: do not use for flight planning or navigation.
Latest weather
Observation time Wednesday, July 27, 2016 5:51 AM CDT
Local time Wednesday, July 27, 2016 6:27 AM CDT
Flight conditions Visual Meteorological Conditions
Winds
Wind speed calm
Visibility 10 mi.
Sky condition
Ceiling unlimited
Cloud layer few clouds 4,000 ft.
Cloud layer few clouds 25,000 ft.
Temperature 69°F
Dewpoint 63°F
Altimeter 30.02 in.Hg
Derived measurements
Relative humidity 81%
Density altitude 1478 ft.
Sea-level pressure 30.01 in.Hg
Remarks
System requires maintenance.
Automated weather observing station with precipitation discriminator.
METAR KORD 271051Z 00000KT 10SM FEW040 FEW250 21/17 A3002 RMK AO2 SLP161 T02060172 $

InnerDrive.Weather 4.0.5722.1 Release CLR 4.0.30319.34209
Copyright ©2015 Inner Drive Technology. All rights reserved. Portions Copyright ©1986-2015 David Braverman.

Find weather

Site navigation


Skip Navigation Links

Place info

Page info

PayPal - The safer, easier way to pay online!

Return home.

Copyright ©2016 Inner Drive Technology. Purveyors of fine, hand-crafted computer software. Page printed 2016-07-27T11:27:34 UTC.